Time;durP1;ratioP1;P1;durP2;ratioP2;P2;SDS_P1;SDS_P2;PMS_P1;PMS_P2;Temp;Humidity;BMP_temperature;BMP_pressure;BME280_temperature;BME280_humidity;BME280_pressure;Samples;Min_cycle;Max_cycle;Signal;HPM_P1;HPM_P2
2021/09/04 00:00:51;;;;;;;32.65;21.77;;;19.00;99.90;;;;;;5066981;28;20419;-80
2021/09/04 00:03:16;;;;;;;38.08;22.95;;;19.00;99.90;;;;;;5061281;28;20030;-81
2021/09/04 00:05:42;;;;;;;41.38;23.67;;;19.00;99.90;;;;;;5060273;28;20033;-79
2021/09/04 00:08:07;;;;;;;35.50;22.08;;;18.90;99.90;;;;;;5069045;28;20067;-76
2021/09/04 00:10:33;;;;;;;39.47;22.98;;;18.90;99.90;;;;;;5069693;28;20111;-81
2021/09/04 00:12:59;;;;;;;36.42;24.45;;;18.90;99.90;;;;;;5066461;28;20024;-81
2021/09/04 00:15:26;;;;;;;36.92;22.38;;;18.80;99.90;;;;;;5063870;28;20027;-81
2021/09/04 00:17:53;;;;;;;33.78;20.33;;;18.90;99.90;;;;;;5067929;28;20017;-80
2021/09/04 00:20:19;;;;;;;42.30;25.15;;;18.90;99.90;;;;;;5064215;28;20025;-79
2021/09/04 00:22:45;;;;;;;41.15;24.17;;;18.80;99.90;;;;;;5069511;28;20037;-80
2021/09/04 00:25:11;;;;;;;36.10;23.05;;;18.90;99.90;;;;;;5071709;28;20040;-80
2021/09/04 00:27:37;;;;;;;37.55;22.92;;;18.90;99.90;;;;;;5064259;28;20090;-83
2021/09/04 00:30:03;;;;;;;36.83;22.90;;;18.80;99.90;;;;;;5050676;28;20020;-83
2021/09/04 00:32:29;;;;;;;38.33;23.98;;;18.80;99.90;;;;;;5071415;28;20474;-81
2021/09/04 00:34:55;;;;;;;36.38;23.77;;;18.80;99.90;;;;;;5070377;28;20540;-82
2021/09/04 00:37:20;;;;;;;39.85;23.85;;;18.80;99.90;;;;;;5070074;28;20020;-82
2021/09/04 00:39:46;;;;;;;38.90;24.35;;;18.80;99.90;;;;;;5069700;28;20024;-82
2021/09/04 00:42:12;;;;;;;39.80;23.90;;;18.70;99.90;;;;;;5067292;28;20477;-78
2021/09/04 00:44:38;;;;;;;39.75;23.40;;;18.70;99.90;;;;;;5060786;28;20469;-82
2021/09/04 00:47:05;;;;;;;35.15;23.67;;;18.80;99.90;;;;;;5061752;28;20024;-84
2021/09/04 00:49:36;;;;;;;38.13;24.40;;;18.70;99.90;;;;;;5055340;28;20029;-82
2021/09/04 00:52:03;;;;;;;44.58;25.20;;;18.70;99.90;;;;;;5068870;28;20017;-83
2021/09/04 00:54:29;;;;;;;42.55;26.27;;;18.70;99.90;;;;;;5067144;28;20126;-85
2021/09/04 00:56:55;;;;;;;38.03;24.33;;;18.70;99.90;;;;;;5068793;28;20044;-84
2021/09/04 00:59:21;;;;;;;44.63;26.50;;;18.70;99.90;;;;;;5072728;28;20039;-82
2021/09/04 01:01:46;;;;;;;37.25;23.92;;;18.60;99.90;;;;;;5070179;28;20086;-84
2021/09/04 01:04:13;;;;;;;35.10;24.45;;;18.60;99.90;;;;;;5063747;28;20033;-84
2021/09/04 01:06:39;;;;;;;43.55;26.25;;;18.60;99.90;;;;;;5066327;28;20024;-85
2021/09/04 01:09:05;;;;;;;39.53;26.90;;;18.60;99.90;;;;;;5065364;28;20032;-84
2021/09/04 01:11:31;;;;;;;41.92;25.48;;;18.60;99.90;;;;;;5068757;28;20049;-84
2021/09/04 01:13:56;;;;;;;42.20;26.45;;;18.60;99.90;;;;;;5063925;28;20071;-85
2021/09/04 01:16:22;;;;;;;36.10;24.33;;;18.60;99.90;;;;;;5069919;28;20380;-85
2021/09/04 01:18:48;;;;;;;37.83;24.83;;;18.50;99.90;;;;;;5066741;28;20023;-85
2021/09/04 01:21:14;;;;;;;39.85;26.40;;;18.50;99.90;;;;;;5063398;28;20082;-84
2021/09/04 01:23:40;;;;;;;40.25;26.65;;;18.50;99.90;;;;;;5065445;28;20140;-84
2021/09/04 01:26:07;;;;;;;39.80;25.70;;;18.50;99.90;;;;;;5063547;28;20123;-83
2021/09/04 01:28:33;;;;;;;43.88;27.52;;;18.40;99.90;;;;;;5066839;28;20434;-84
2021/09/04 01:31:01;;;;;;;39.67;25.52;;;18.40;99.90;;;;;;5059064;28;20055;-85
2021/09/04 01:33:26;;;;;;;39.97;25.73;;;18.40;99.90;;;;;;5046407;28;20111;-86
2021/09/04 01:35:52;;;;;;;40.65;25.50;;;18.30;99.90;;;;;;5070426;28;20449;-86
2021/09/04 01:38:19;;;;;;;46.45;27.95;;;18.30;99.90;;;;;;5072172;28;20024;-85
2021/09/04 01:40:45;;;;;;;39.63;25.48;;;18.20;99.90;;;;;;5073532;28;20016;-85
2021/09/04 01:43:11;;;;;;;45.15;28.08;;;18.30;99.90;;;;;;5067364;28;20487;-85
2021/09/04 01:45:38;;;;;;;46.80;28.52;;;18.20;99.90;;;;;;5059962;28;20397;-84
2021/09/04 01:48:04;;;;;;;42.10;27.60;;;18.20;99.90;;;;;;5060325;28;20020;-85
2021/09/04 01:50:30;;;;;;;42.58;29.65;;;18.20;99.90;;;;;;5065903;28;20024;-85
2021/09/04 01:52:56;;;;;;;43.88;28.58;;;18.20;99.90;;;;;;5077083;28;20555;-85
2021/09/04 01:55:22;;;;;;;40.72;27.83;;;18.10;99.90;;;;;;5076965;28;20033;-83
2021/09/04 01:57:48;;;;;;;42.80;27.63;;;18.10;99.90;;;;;;5070248;28;20033;-85
2021/09/04 02:00:15;;;;;;;47.85;28.48;;;18.10;99.90;;;;;;5071888;28;20060;-85
2021/09/04 02:02:41;;;;;;;45.58;27.30;;;18.10;99.90;;;;;;5072377;28;20020;-85
2021/09/04 02:05:09;;;;;;;45.70;27.48;;;18.00;99.90;;;;;;5071927;28;20032;-85
2021/09/04 02:07:35;;;;;;;46.53;28.00;;;18.00;99.90;;;;;;5076629;28;20062;-86
2021/09/04 02:10:02;;;;;;;48.42;29.40;;;18.00;99.90;;;;;;5066681;28;20056;-74
2021/09/04 02:12:29;;;;;;;47.40;30.02;;;18.00;99.90;;;;;;5069656;28;20032;-86
2021/09/04 02:14:55;;;;;;;48.05;28.63;;;17.80;99.90;;;;;;5074196;28;20024;-84
2021/09/04 02:17:20;;;;;;;44.92;27.45;;;17.90;99.90;;;;;;5076040;28;20484;-83
2021/09/04 02:19:46;;;;;;;43.75;27.10;;;17.90;99.90;;;;;;5065299;28;20029;-83
2021/09/04 02:22:12;;;;;;;50.55;29.73;;;17.90;99.90;;;;;;5068402;28;20617;-84
2021/09/04 02:24:38;;;;;;;43.22;27.92;;;17.90;99.90;;;;;;5062757;28;20101;-82
2021/09/04 02:27:04;;;;;;;40.55;27.20;;;17.90;99.90;;;;;;5074024;28;20028;-84
2021/09/04 02:29:30;;;;;;;48.05;27.95;;;17.90;99.90;;;;;;5073004;28;20035;-83
2021/09/04 02:31:56;;;;;;;45.92;28.90;;;17.90;99.90;;;;;;5069961;28;20025;-85
2021/09/04 02:34:22;;;;;;;43.95;29.58;;;17.80;99.90;;;;;;5060994;28;20473;-84
2021/09/04 02:36:48;;;;;;;45.65;27.77;;;17.80;99.90;;;;;;5074921;28;20096;-84
2021/09/04 02:39:15;;;;;;;44.17;27.55;;;17.80;99.90;;;;;;5055786;28;20020;-84
2021/09/04 02:41:42;;;;;;;46.03;29.13;;;17.80;99.90;;;;;;5055037;28;20116;-81
2021/09/04 02:44:09;;;;;;;46.50;28.08;;;17.90;99.90;;;;;;5070106;28;20522;-84
2021/09/04 02:46:34;;;;;;;42.67;25.95;;;17.80;99.90;;;;;;5071159;28;20090;-84
2021/09/04 02:49:00;;;;;;;50.38;29.13;;;17.80;99.90;;;;;;5068799;28;20025;-84
2021/09/04 02:51:26;;;;;;;47.42;28.00;;;17.80;99.90;;;;;;5076727;28;20497;-83
2021/09/04 02:53:52;;;;;;;43.65;27.42;;;17.80;99.90;;;;;;5067013;28;20025;-85
2021/09/04 02:56:17;;;;;;;39.33;25.65;;;17.80;99.90;;;;;;5072359;28;20035;-75
2021/09/04 02:58:43;;;;;;;43.00;27.23;;;17.80;99.90;;;;;;5066107;28;20029;-82
2021/09/04 03:01:09;;;;;;;45.58;27.02;;;17.80;99.90;;;;;;5056047;28;20069;-84
2021/09/04 03:03:34;;;;;;;47.88;28.88;;;17.70;99.90;;;;;;5062671;28;20164;-84
2021/09/04 03:06:03;;;;;;;48.97;29.65;;;17.60;99.90;;;;;;5065774;28;20138;-84
2021/09/04 03:08:29;;;;;;;57.08;30.75;;;17.60;99.90;;;;;;5069023;28;20036;-77
2021/09/04 03:10:55;;;;;;;46.60;29.08;;;17.60;99.90;;;;;;5060694;28;20032;-84
2021/09/04 03:13:21;;;;;;;44.85;29.33;;;17.60;99.90;;;;;;5066017;28;20462;-84
2021/09/04 03:15:46;;;;;;;45.35;27.27;;;17.60;99.90;;;;;;5054784;28;20056;-85
2021/09/04 03:18:13;;;;;;;48.22;28.83;;;17.60;99.90;;;;;;5057772;28;20032;-84
2021/09/04 03:20:39;;;;;;;47.83;29.88;;;17.50;99.90;;;;;;5067542;28;20020;-83
2021/09/04 03:23:05;;;;;;;47.42;28.00;;;17.50;99.90;;;;;;5065132;28;20032;-84
2021/09/04 03:25:31;;;;;;;44.58;28.23;;;17.60;99.90;;;;;;5047616;28;20036;-84
2021/09/04 03:27:57;;;;;;;41.70;27.20;;;17.60;99.90;;;;;;5062685;28;20466;-85
2021/09/04 03:30:23;;;;;;;45.67;27.38;;;17.60;99.90;;;;;;5054433;28;20396;-85
2021/09/04 03:32:48;;;;;;;50.42;30.98;;;17.60;99.90;;;;;;5061513;28;20017;-84
2021/09/04 03:35:14;;;;;;;48.00;28.35;;;17.60;99.90;;;;;;5057706;28;20083;-84
2021/09/04 03:37:40;;;;;;;49.85;29.17;;;17.50;99.90;;;;;;5073686;28;20028;-85
2021/09/04 03:40:06;;;;;;;45.38;27.00;;;17.50;99.90;;;;;;5065164;28;20539;-85
2021/09/04 03:42:32;;;;;;;51.83;31.58;;;17.50;99.90;;;;;;5054502;28;20035;-79
2021/09/04 03:44:57;;;;;;;50.15;27.98;;;17.50;99.90;;;;;;5070801;28;20036;-84
2021/09/04 03:47:23;;;;;;;51.53;29.60;;;17.50;99.90;;;;;;5071320;28;20027;-84
2021/09/04 03:49:49;;;;;;;49.85;29.55;;;17.50;99.90;;;;;;5067925;28;20031;-76
2021/09/04 03:52:14;;;;;;;50.53;30.33;;;17.40;99.90;;;;;;5071721;28;20488;-84
2021/09/04 03:54:40;;;;;;;48.45;28.70;;;17.40;99.90;;;;;;5067224;28;20431;-84
2021/09/04 03:57:05;;;;;;;44.70;29.10;;;17.30;99.90;;;;;;5071782;28;20024;-85
2021/09/04 03:59:31;;;;;;;53.25;32.08;;;17.40;99.90;;;;;;5066534;28;20476;-83
2021/09/04 04:01:57;;;;;;;53.13;31.50;;;17.40;99.90;;;;;;5068090;28;20350;-84
2021/09/04 04:04:22;;;;;;;62.30;34.33;;;17.40;99.90;;;;;;5073425;28;20028;-84
2021/09/04 04:06:48;;;;;;;58.95;32.47;;;17.30;99.90;;;;;;5072207;28;20047;-84
2021/09/04 04:09:13;;;;;;;61.03;33.83;;;17.40;99.90;;;;;;5070192;28;20016;-84
2021/09/04 04:11:40;;;;;;;61.88;33.60;;;17.30;99.90;;;;;;5062287;28;20081;-84
2021/09/04 04:14:06;;;;;;;70.07;36.05;;;17.30;99.90;;;;;;5065559;28;20174;-85
2021/09/04 04:16:32;;;;;;;70.47;35.67;;;17.30;99.90;;;;;;5072223;28;20105;-84
2021/09/04 04:18:57;;;;;;;70.30;36.90;;;17.30;99.90;;;;;;5072371;28;20048;-85
2021/09/04 04:21:23;;;;;;;79.93;38.38;;;17.20;99.90;;;;;;5074798;28;20149;-85
2021/09/04 04:23:49;;;;;;;75.32;40.28;;;17.20;99.90;;;;;;5068870;28;20377;-84
2021/09/04 04:26:14;;;;;;;71.80;38.10;;;17.30;99.90;;;;;;5065793;28;20120;-85
2021/09/04 04:28:40;;;;;;;68.53;36.92;;;17.30;99.90;;;;;;5049503;28;20576;-85
2021/09/04 04:31:05;;;;;;;78.35;39.53;;;17.30;99.90;;;;;;5069148;28;20028;-84
2021/09/04 04:33:31;;;;;;;82.47;40.72;;;17.30;99.90;;;;;;5066706;28;20477;-85
2021/09/04 04:35:57;;;;;;;81.45;39.22;;;17.40;99.90;;;;;;5065035;28;20107;-85
2021/09/04 04:38:23;;;;;;;87.75;42.55;;;17.30;99.90;;;;;;5064430;28;20086;-85
2021/09/04 04:40:48;;;;;;;98.40;44.22;;;17.30;99.90;;;;;;5064607;28;20020;-83
2021/09/04 04:43:14;;;;;;;93.03;42.33;;;17.30;99.90;;;;;;5064573;28;20021;-83
2021/09/04 04:45:39;;;;;;;93.68;43.10;;;17.20;99.90;;;;;;5071879;28;20039;-81
2021/09/04 04:48:05;;;;;;;97.05;44.33;;;17.30;99.90;;;;;;5062488;28;20012;-84
2021/09/04 04:50:31;;;;;;;99.10;46.15;;;17.30;99.90;;;;;;5065741;28;20028;-84
2021/09/04 04:52:57;;;;;;;100.57;45.13;;;17.30;99.90;;;;;;5072860;28;20029;-84
2021/09/04 04:55:22;;;;;;;107.65;44.63;;;17.30;99.90;;;;;;5070871;28;20016;-85
2021/09/04 04:57:48;;;;;;;105.07;47.10;;;17.20;99.90;;;;;;5070699;28;20024;-85
2021/09/04 05:00:14;;;;;;;102.78;45.72;;;17.10;99.90;;;;;;5073193;28;20020;-85
2021/09/04 05:02:40;;;;;;;109.18;46.80;;;17.10;99.90;;;;;;5067441;28;20024;-82
2021/09/04 05:05:07;;;;;;;108.68;47.30;;;16.90;99.90;;;;;;5064368;28;20443;-85
2021/09/04 05:07:33;;;;;;;112.80;47.75;;;17.10;99.90;;;;;;5071192;28;20103;-85
2021/09/04 05:09:59;;;;;;;113.32;48.03;;;17.20;99.90;;;;;;5069445;28;20373;-85
2021/09/04 05:12:24;;;;;;;123.90;51.30;;;17.10;99.90;;;;;;5074284;28;20028;-84
2021/09/04 05:14:50;;;;;;;108.90;47.75;;;17.10;99.90;;;;;;5062378;28;20025;-86
2021/09/04 05:17:16;;;;;;;119.05;49.13;;;17.20;99.90;;;;;;5067666;28;20025;-82
2021/09/04 05:19:41;;;;;;;118.22;51.63;;;17.20;99.90;;;;;;5048168;28;20025;-83
2021/09/04 05:22:07;;;;;;;124.97;52.10;;;17.10;99.90;;;;;;5049833;28;20480;-81
2021/09/04 05:24:32;;;;;;;125.78;50.53;;;17.10;99.90;;;;;;5070864;28;20128;-83
2021/09/04 05:26:58;;;;;;;164.95;56.15;;;17.00;99.90;;;;;;5073151;28;20024;-82
2021/09/04 05:29:23;;;;;;;122.93;51.22;;;17.10;99.90;;;;;;5054342;28;20108;-82
2021/09/04 05:31:49;;;;;;;129.23;53.03;;;17.00;99.90;;;;;;5052333;28;20368;-81
2021/09/04 05:34:15;;;;;;;131.25;52.85;;;17.00;99.90;;;;;;5068507;28;20024;-81
2021/09/04 05:36:40;;;;;;;128.93;53.33;;;17.00;99.90;;;;;;5073550;28;20032;-80
2021/09/04 05:39:06;;;;;;;125.45;53.83;;;17.00;99.90;;;;;;5070914;28;20043;-81
2021/09/04 05:41:31;;;;;;;146.70;55.47;;;17.10;99.90;;;;;;5073276;28;20040;-81
2021/09/04 05:43:57;;;;;;;136.88;53.40;;;17.00;99.90;;;;;;5055876;28;20079;-82
2021/09/04 05:46:22;;;;;;;121.57;52.13;;;17.10;99.90;;;;;;5069244;28;20389;-81
2021/09/04 05:48:48;;;;;;;120.10;52.53;;;17.10;99.90;;;;;;5063375;28;20032;-78
2021/09/04 05:51:14;;;;;;;129.10;50.42;;;17.10;99.90;;;;;;5069685;28;20044;-80
2021/09/04 05:53:40;;;;;;;118.95;50.83;;;17.00;99.90;;;;;;5074551;28;20505;-81
2021/09/04 05:56:06;;;;;;;121.80;50.95;;;16.90;99.90;;;;;;5067306;28;20484;-79
2021/09/04 05:58:32;;;;;;;116.15;50.15;;;17.00;99.90;;;;;;5067248;28;20020;-80
2021/09/04 06:00:57;;;;;;;104.13;48.60;;;16.90;99.90;;;;;;5073665;28;20391;-80
2021/09/04 06:03:23;;;;;;;105.07;47.80;;;16.90;99.90;;;;;;5074702;28;20070;-80
2021/09/04 06:05:49;;;;;;;105.55;46.67;;;17.00;99.90;;;;;;5069879;28;20028;-80
2021/09/04 06:08:14;;;;;;;109.50;48.22;;;17.10;99.90;;;;;;5072986;28;20382;-80
2021/09/04 06:10:40;;;;;;;103.00;48.03;;;17.10;99.90;;;;;;5062868;28;20082;-79
2021/09/04 06:13:06;;;;;;;95.32;45.70;;;17.00;99.90;;;;;;5078335;28;20052;-80
2021/09/04 06:15:32;;;;;;;91.97;45.58;;;17.00;99.90;;;;;;5073856;28;20033;-80
2021/09/04 06:17:57;;;;;;;94.03;46.75;;;16.80;99.90;;;;;;5074898;28;20407;-80
2021/09/04 06:20:23;;;;;;;92.57;45.15;;;16.90;99.90;;;;;;5073617;28;20039;-81
2021/09/04 06:22:49;;;;;;;88.13;43.13;;;16.90;99.90;;;;;;5061854;28;20027;-81
2021/09/04 06:25:15;;;;;;;87.43;42.28;;;16.80;99.90;;;;;;5065565;28;20044;-80
2021/09/04 06:27:41;;;;;;;83.75;45.58;;;16.80;99.90;;;;;;5051625;28;20021;-80
2021/09/04 06:30:08;;;;;;;93.60;46.53;;;16.90;99.90;;;;;;5064953;28;20033;-80
2021/09/04 06:32:33;;;;;;;86.05;42.90;;;16.90;99.90;;;;;;5058723;28;20123;-80
2021/09/04 06:34:59;;;;;;;104.63;48.03;;;17.00;99.90;;;;;;5071607;28;20060;-80
2021/09/04 06:37:25;;;;;;;79.25;40.28;;;17.00;99.90;;;;;;5058329;28;20087;-81
2021/09/04 06:39:50;;;;;;;90.80;43.65;;;16.90;99.90;;;;;;5064592;28;20108;-81
2021/09/04 06:42:17;;;;;;;95.82;45.20;;;16.80;99.90;;;;;;5079731;28;20031;-82
2021/09/04 06:44:43;;;;;;;85.93;41.13;;;16.90;99.90;;;;;;5054948;28;20016;-81
2021/09/04 06:47:08;;;;;;;90.85;41.53;;;16.90;99.90;;;;;;5071149;28;20027;-81
2021/09/04 06:49:35;;;;;;;96.10;45.42;;;16.90;99.90;;;;;;5072665;28;20021;-82
2021/09/04 06:52:00;;;;;;;94.50;44.78;;;17.00;99.90;;;;;;5073557;28;20099;-81
2021/09/04 06:54:26;;;;;;;85.95;41.58;;;17.10;99.90;;;;;;5056259;28;20128;-82
2021/09/04 06:56:52;;;;;;;87.93;42.65;;;17.10;99.90;;;;;;5064757;28;20028;-82
2021/09/04 06:59:18;;;;;;;83.95;44.45;;;17.10;99.90;;;;;;5070611;28;20052;-78
2021/09/04 07:01:43;;;;;;;83.38;40.15;;;17.20;99.90;;;;;;5073280;28;20021;-78
2021/09/04 07:04:09;;;;;;;88.03;41.35;;;17.10;99.90;;;;;;5071657;28;20515;-79
2021/09/04 07:06:35;;;;;;;81.88;40.20;;;17.20;99.90;;;;;;5071138;28;20028;-80
2021/09/04 07:09:01;;;;;;;84.10;40.88;;;17.10;99.90;;;;;;5070483;28;20036;-83
2021/09/04 07:11:27;;;;;;;78.65;38.53;;;17.10;99.90;;;;;;5072649;28;20035;-80
2021/09/04 07:13:53;;;;;;;82.13;37.75;;;17.00;99.90;;;;;;5073666;28;20051;-82
2021/09/04 07:16:18;;;;;;;72.32;36.17;;;16.90;99.90;;;;;;5073010;28;20025;-81
2021/09/04 07:18:44;;;;;;;70.28;36.67;;;16.80;99.90;;;;;;5073697;28;20029;-79
2021/09/04 07:21:10;;;;;;;73.07;36.53;;;16.80;99.90;;;;;;5073662;28;20032;-80
2021/09/04 07:23:35;;;;;;;65.75;33.60;;;16.80;99.90;;;;;;5073602;28;20560;-82
2021/09/04 07:26:01;;;;;;;65.25;34.17;;;16.80;99.90;;;;;;5070687;28;20102;-83
2021/09/04 07:28:27;;;;;;;66.22;33.90;;;16.80;99.90;;;;;;5075357;28;20028;-82
2021/09/04 07:30:53;;;;;;;64.55;33.50;;;16.80;99.90;;;;;;5072487;28;20108;-82
2021/09/04 07:33:19;;;;;;;66.75;33.45;;;16.90;99.90;;;;;;5073363;28;20078;-82
2021/09/04 07:35:45;;;;;;;59.63;32.05;;;16.90;99.90;;;;;;5062302;28;20028;-81
2021/09/04 07:38:11;;;;;;;57.13;31.17;;;16.90;99.90;;;;;;5081560;28;20021;-82
2021/09/04 07:40:38;;;;;;;56.20;31.05;;;17.00;99.90;;;;;;5072769;28;20024;-83
2021/09/04 07:43:08;;;;;;;64.43;34.15;;;16.90;99.90;;;;;;5073199;28;20074;-83
2021/09/04 07:45:35;;;;;;;60.25;33.00;;;16.80;99.90;;;;;;5070871;28;20044;-82
2021/09/04 07:48:01;;;;;;;60.33;34.08;;;16.80;99.90;;;;;;5068464;28;20028;-82
2021/09/04 07:50:27;;;;;;;61.50;32.92;;;16.90;99.90;;;;;;5071221;28;20086;-82
2021/09/04 07:52:53;;;;;;;73.90;35.85;;;17.00;99.90;;;;;;5055091;28;20385;-82
2021/09/04 07:55:19;;;;;;;70.50;35.72;;;17.00;99.90;;;;;;5055371;28;20119;-84
2021/09/04 07:57:45;;;;;;;58.55;31.80;;;17.20;99.90;;;;;;5073198;28;20025;-80
2021/09/04 08:00:11;;;;;;;64.35;33.75;;;17.10;99.90;;;;;;5072734;28;20115;-81
2021/09/04 08:02:37;;;;;;;67.85;35.80;;;17.20;99.90;;;;;;5072079;28;20017;-81
2021/09/04 08:05:03;;;;;;;59.28;31.92;;;17.10;99.90;;;;;;5071632;28;20040;-82
2021/09/04 08:07:28;;;;;;;57.92;32.33;;;17.20;99.90;;;;;;5072885;28;20017;-84
2021/09/04 08:09:54;;;;;;;66.88;34.20;;;17.20;99.90;;;;;;5071676;28;20032;-81
2021/09/04 08:12:20;;;;;;;55.38;31.17;;;17.10;99.90;;;;;;5054611;28;20031;-80
2021/09/04 08:14:46;;;;;;;66.22;32.50;;;17.10;99.90;;;;;;5072662;28;20381;-79
2021/09/04 08:17:11;;;;;;;57.47;30.05;;;17.20;99.90;;;;;;5072832;28;20469;-81
2021/09/04 08:19:37;;;;;;;60.97;33.78;;;17.10;99.90;;;;;;5073216;28;20025;-81
2021/09/04 08:22:03;;;;;;;61.78;32.38;;;17.10;99.90;;;;;;5072643;28;20037;-80
2021/09/04 08:24:31;;;;;;;63.40;33.80;;;17.10;99.90;;;;;;5068101;28;20032;-83
2021/09/04 08:26:58;;;;;;;58.83;32.70;;;17.20;99.90;;;;;;5056092;28;20450;-83
2021/09/04 08:29:23;;;;;;;58.90;33.03;;;17.10;99.90;;;;;;5069722;28;20016;-80
2021/09/04 08:31:49;;;;;;;53.33;31.52;;;17.10;99.90;;;;;;5072398;28;20028;-80
2021/09/04 08:34:15;;;;;;;63.88;33.53;;;17.10;99.90;;;;;;5072604;28;20028;-80
2021/09/04 08:36:41;;;;;;;61.78;34.33;;;17.00;99.90;;;;;;5072596;28;20067;-80
2021/09/04 08:39:07;;;;;;;58.63;32.25;;;17.00;99.90;;;;;;5054197;28;20024;-80
2021/09/04 08:41:35;;;;;;;60.40;32.50;;;16.90;99.90;;;;;;5072218;28;20028;-81
2021/09/04 08:44:02;;;;;;;58.45;33.95;;;17.00;99.90;;;;;;5071590;28;20073;-80
2021/09/04 08:46:33;;;;;;;54.17;31.80;;;17.00;99.90;;;;;;5072515;28;20032;-81
2021/09/04 08:49:03;;;;;;;58.20;31.52;;;17.10;99.90;;;;;;5071117;28;20047;-81
2021/09/04 08:51:29;;;;;;;59.63;31.23;;;17.10;99.90;;;;;;5072660;28;20020;-82
2021/09/04 08:53:55;;;;;;;61.08;32.20;;;17.20;99.90;;;;;;5063459;28;20054;-82
2021/09/04 08:56:21;;;;;;;68.57;34.05;;;17.20;99.90;;;;;;5070611;28;20086;-83
2021/09/04 08:58:46;;;;;;;65.38;34.90;;;17.20;99.90;;;;;;5072532;28;20031;-80
2021/09/04 09:01:21;;;;;;;56.92;32.20;;;17.20;99.90;;;;;;5072016;28;20028;-82
2021/09/04 09:03:49;;;;;;;55.15;30.48;;;17.30;99.90;;;;;;5054177;28;20136;-82
2021/09/04 09:06:24;;;;;;;53.55;30.17;;;17.30;99.90;;;;;;5072419;28;20029;-81
2021/09/04 09:08:50;;;;;;;53.95;30.40;;;17.30;99.90;;;;;;5074341;28;20065;-81
2021/09/04 09:11:15;;;;;;;54.25;30.38;;;17.30;99.90;;;;;;5072175;28;20535;-81
2021/09/04 09:13:56;;;;;;;49.30;30.15;;;17.30;99.90;;;;;;5054410;28;20488;-80
2021/09/04 09:16:24;;;;;;;58.97;30.17;;;17.50;99.90;;;;;;5072315;28;20362;-80
2021/09/04 09:19:03;;;;;;;50.80;28.73;;;17.50;99.90;;;;;;5060335;28;20024;-81
2021/09/04 09:21:37;;;;;;;56.58;32.47;;;17.40;99.90;;;;;;5072068;28;20052;-81
2021/09/04 09:24:11;;;;;;;52.88;30.25;;;17.40;99.90;;;;;;5071141;28;20032;-81
2021/09/04 09:26:48;;;;;;;53.45;30.83;;;17.40;99.90;;;;;;5068310;28;20079;-81
2021/09/04 09:29:18;;;;;;;57.75;32.03;;;17.40;99.90;;;;;;5069130;28;20042;-81
2021/09/04 09:31:43;;;;;;;52.35;29.40;;;17.30;99.90;;;;;;5072393;28;20028;-81
2021/09/04 09:34:10;;;;;;;52.78;30.83;;;17.30;99.90;;;;;;5072125;28;20743;-81
2021/09/04 09:36:50;;;;;;;55.15;31.52;;;17.30;99.90;;;;;;5071562;28;20082;-80
2021/09/04 09:39:16;;;;;;;56.92;29.95;;;17.30;99.90;;;;;;5058133;28;20056;-81
2021/09/04 09:41:50;;;;;;;49.50;30.58;;;17.40;99.90;;;;;;5044923;28;20063;-76
2021/09/04 09:44:21;;;;;;;49.35;29.88;;;17.40;99.90;;;;;;5062477;28;20033;-79
2021/09/04 09:46:48;;;;;;;47.30;29.42;;;17.40;99.90;;;;;;5052809;28;20449;-80
2021/09/04 09:49:14;;;;;;;51.88;30.95;;;17.50;99.90;;;;;;5069927;28;20092;-81
2021/09/04 09:51:39;;;;;;;57.42;30.20;;;17.60;99.90;;;;;;5071326;28;20116;-81
2021/09/04 09:54:07;;;;;;;52.20;30.35;;;17.50;99.90;;;;;;5071269;28;20028;-81
2021/09/04 09:56:33;;;;;;;54.22;30.42;;;17.50;99.90;;;;;;5070436;28;20068;-79
2021/09/04 09:58:59;;;;;;;54.60;31.15;;;17.50;99.90;;;;;;5070241;28;20477;-81
2021/09/04 10:01:25;;;;;;;54.15;29.52;;;17.40;99.90;;;;;;5070765;28;20461;-81
2021/09/04 10:03:54;;;;;;;53.63;30.83;;;17.60;99.90;;;;;;5069884;28;20028;-81
2021/09/04 10:06:20;;;;;;;55.90;31.25;;;17.60;99.90;;;;;;5069105;28;20035;-81
2021/09/04 10:08:46;;;;;;;51.45;29.10;;;17.60;99.90;;;;;;5076784;28;20021;-78
2021/09/04 10:11:12;;;;;;;55.25;32.03;;;17.70;99.90;;;;;;5071470;28;20578;-81
2021/09/04 10:13:38;;;;;;;51.35;29.85;;;17.70;99.90;;;;;;5073353;28;20064;-82
2021/09/04 10:16:06;;;;;;;48.08;28.40;;;17.80;99.90;;;;;;5072605;28;20504;-81
2021/09/04 10:18:33;;;;;;;53.78;30.35;;;17.70;99.90;;;;;;5074328;28;20021;-82
2021/09/04 10:21:04;;;;;;;58.15;33.00;;;17.80;99.90;;;;;;5065358;28;20029;-81
2021/09/04 10:23:32;;;;;;;59.42;32.03;;;17.70;99.90;;;;;;5063569;28;20032;-81
2021/09/04 10:26:21;;;;;;;55.90;33.55;;;17.70;99.90;;;;;;5056847;28;20051;-82
2021/09/04 10:29:12;;;;;;;52.03;30.33;;;17.70;99.90;;;;;;5054389;28;20029;-77
2021/09/04 10:31:52;;;;;;;52.10;31.20;;;17.80;99.90;;;;;;5072087;28;20112;-85
2021/09/04 10:34:39;;;;;;;54.13;31.27;;;17.80;99.90;;;;;;5057143;28;20036;-85
2021/09/04 10:37:14;;;;;;;55.00;32.53;;;17.90;99.90;;;;;;5068346;28;20024;-84
2021/09/04 10:39:53;;;;;;;51.78;31.50;;;17.80;99.90;;;;;;5072379;28;20029;-82
2021/09/04 10:42:26;;;;;;;52.47;31.52;;;18.00;99.90;;;;;;5067219;28;20052;-84
2021/09/04 10:45:17;;;;;;;50.67;31.02;;;18.00;99.90;;;;;;5056160;28;20040;-85
2021/09/04 10:47:56;;;;;;;58.03;32.90;;;17.90;99.90;;;;;;5063049;28;20101;-87
2021/09/04 10:50:27;;;;;;;53.00;32.33;;;17.90;99.90;;;;;;5069208;28;20477;-84
2021/09/04 10:53:07;;;;;;;60.25;34.70;;;17.90;99.90;;;;;;5064675;28;20094;-82
2021/09/04 10:55:35;;;;;;;61.70;33.30;;;18.00;99.90;;;;;;5067070;28;20127;-83
2021/09/04 10:58:07;;;;;;;56.17;34.35;;;18.00;99.90;;;;;;5083767;28;20036;-83
2021/09/04 11:00:51;;;;;;;64.57;35.65;;;18.10;99.90;;;;;;5046425;28;20035;-82
2021/09/04 11:03:18;;;;;;;50.15;31.85;;;18.20;99.90;;;;;;5071879;28;20020;-82
2021/09/04 11:05:49;;;;;;;60.78;34.03;;;18.30;99.90;;;;;;5072046;28;20071;-83
2021/09/04 11:08:21;;;;;;;53.22;32.28;;;18.30;99.90;;;;;;5073524;28;20017;-83
2021/09/04 11:10:49;;;;;;;57.65;33.30;;;18.40;99.90;;;;;;5072106;28;20029;-81
2021/09/04 11:13:15;;;;;;;56.67;34.10;;;18.20;99.90;;;;;;5073356;28;20104;-82
2021/09/04 11:15:45;;;;;;;60.13;34.72;;;18.40;99.90;;;;;;5073958;28;20029;-83
2021/09/04 11:18:12;;;;;;;57.25;35.22;;;18.30;99.90;;;;;;5054514;28;20107;-82
2021/09/04 11:20:48;;;;;;;52.85;32.35;;;18.30;99.90;;;;;;5055117;28;20028;-83
2021/09/04 11:23:25;;;;;;;55.03;33.85;;;18.30;99.90;;;;;;5061288;28;20025;-80
2021/09/04 11:25:51;;;;;;;55.00;33.53;;;18.30;99.90;;;;;;5069520;28;20169;-83
2021/09/04 11:28:34;;;;;;;57.88;35.05;;;18.40;99.90;;;;;;5073309;28;20031;-82
2021/09/04 11:31:01;;;;;;;63.45;35.42;;;18.50;99.90;;;;;;5068794;28;20025;-83
2021/09/04 11:33:26;;;;;;;57.40;34.58;;;18.60;99.90;;;;;;5071657;28;20017;-83
2021/09/04 11:35:55;;;;;;;58.25;34.15;;;18.70;99.90;;;;;;5072298;28;20480;-84
2021/09/04 11:38:21;;;;;;;59.88;35.20;;;18.80;99.90;;;;;;5067932;28;20013;-83
2021/09/04 11:40:47;;;;;;;61.30;35.42;;;18.80;99.90;;;;;;5071912;28;20020;-82
2021/09/04 11:43:16;;;;;;;60.38;34.80;;;18.70;99.90;;;;;;5070042;28;20051;-84
2021/09/04 11:45:43;;;;;;;58.05;35.83;;;18.80;99.90;;;;;;5065943;28;20511;-82
2021/09/04 11:48:13;;;;;;;53.85;32.95;;;18.70;99.90;;;;;;5055859;28;20053;-86
2021/09/04 11:50:40;;;;;;;56.00;36.63;;;18.80;99.90;;;;;;5071199;28;20037;-83
2021/09/04 11:53:11;;;;;;;54.63;34.72;;;18.80;99.90;;;;;;5053172;28;20028;-83
2021/09/04 11:55:37;;;;;;;57.22;34.25;;;18.90;99.90;;;;;;5072473;28;20062;-82
2021/09/04 11:58:05;;;;;;;54.63;33.58;;;19.00;99.90;;;;;;5072789;28;20029;-83
2021/09/04 12:00:37;;;;;;;60.65;39.60;;;19.00;99.90;;;;;;5054101;28;20385;-84
2021/09/04 12:03:14;;;;;;;54.92;35.90;;;19.00;99.90;;;;;;5071895;28;20024;-84
2021/09/04 12:05:41;;;;;;;61.35;38.30;;;18.90;99.90;;;;;;5070926;28;20040;-82
2021/09/04 12:08:08;;;;;;;61.45;36.60;;;18.90;99.90;;;;;;5076455;28;20020;-83
2021/09/04 12:10:38;;;;;;;54.10;34.92;;;18.90;99.90;;;;;;5077430;28;20540;-85
2021/09/04 12:13:06;;;;;;;55.70;33.15;;;19.00;99.90;;;;;;5072177;28;20025;-80
2021/09/04 12:15:34;;;;;;;51.30;34.38;;;19.10;99.90;;;;;;5072049;28;20082;-83
2021/09/04 12:18:01;;;;;;;54.85;33.78;;;19.20;99.90;;;;;;5069308;28;20020;-78
2021/09/04 12:20:34;;;;;;;59.20;36.95;;;19.30;99.90;;;;;;5064986;28;20070;-84
2021/09/04 12:23:12;;;;;;;55.83;35.38;;;19.40;99.90;;;;;;5071569;28;20021;-84
2021/09/04 12:25:38;;;;;;;52.85;34.97;;;19.40;99.90;;;;;;5066453;28;20169;-82